<?xml version="1.0" encoding="UTF-8" standalone="no" ?>
<gpx xmlns="http://www.topografix.com/GPX/1/1" xmlns:xsi="http://www.w3.org/2001/XMLSchema-instance" xsi:schemaLocation="http://www.topografix.com/GPX/1/1 http://www.topografix.com/GPX/1/1/gpx.xsd" version="1.1" creator="VisuGPX - https://www.visugpx.com">
  <metadata>
    <name>L Aulp Du Seuil</name>
    <desc><![CDATA[grp_trc:[nouvelles]]]></desc>
  </metadata>
  <trk>
    <name><![CDATA[23 oct. 2021 à 15:36:40]]></name>
    <cmt><![CDATA[23 oct. 2021 à 15:36:40]]></cmt>
    <trkseg>
      <trkpt lat="45.186" lon="5.56616">
        <ele>1094</ele>
        <time>2021-10-23T13:36:40Z</time>
      </trkpt>
      <trkpt lat="45.18599" lon="5.56616">
        <ele>1094</ele>
        <time>2021-10-23T13:36:41Z</time>
      </trkpt>
      <trkpt lat="45.18596" lon="5.5663">
        <ele>1096</ele>
        <time>2021-10-23T13:36:53Z</time>
      </trkpt>
      <trkpt lat="45.18593" lon="5.56638">
        <ele>1096</ele>
        <time>2021-10-23T13:36:58Z</time>
      </trkpt>
      <trkpt lat="45.18589" lon="5.56644">
        <ele>1097</ele>
        <time>2021-10-23T13:37:04Z</time>
      </trkpt>
      <trkpt lat="45.18585" lon="5.56664">
        <ele>1100</ele>
        <time>2021-10-23T13:37:18Z</time>
      </trkpt>
      <trkpt lat="45.18584" lon="5.56678">
        <ele>1099</ele>
        <time>2021-10-23T13:37:27Z</time>
      </trkpt>
      <trkpt lat="45.18582" lon="5.56685">
        <ele>1102</ele>
        <time>2021-10-23T13:37:32Z</time>
      </trkpt>
      <trkpt lat="45.18579" lon="5.56716">
        <ele>1106</ele>
        <time>2021-10-23T13:37:58Z</time>
      </trkpt>
      <trkpt lat="45.18575" lon="5.56729">
        <ele>1109</ele>
        <time>2021-10-23T13:38:13Z</time>
      </trkpt>
      <trkpt lat="45.18574" lon="5.56737">
        <ele>1113</ele>
        <time>2021-10-23T13:38:18Z</time>
      </trkpt>
      <trkpt lat="45.18569" lon="5.56743">
        <ele>1110</ele>
        <time>2021-10-23T13:38:22Z</time>
      </trkpt>
      <trkpt lat="45.18557" lon="5.56753">
        <ele>1110</ele>
        <time>2021-10-23T13:38:34Z</time>
      </trkpt>
      <trkpt lat="45.18553" lon="5.56763">
        <ele>1110</ele>
        <time>2021-10-23T13:38:41Z</time>
      </trkpt>
      <trkpt lat="45.18553" lon="5.56775">
        <ele>1112</ele>
        <time>2021-10-23T13:38:48Z</time>
      </trkpt>
      <trkpt lat="45.18547" lon="5.56783">
        <ele>1114</ele>
        <time>2021-10-23T13:39:02Z</time>
      </trkpt>
      <trkpt lat="45.18525" lon="5.56797">
        <ele>1117</ele>
        <time>2021-10-23T13:39:22Z</time>
      </trkpt>
      <trkpt lat="45.18516" lon="5.56797">
        <ele>1118</ele>
        <time>2021-10-23T13:39:28Z</time>
      </trkpt>
      <trkpt lat="45.1851" lon="5.56801">
        <ele>1119</ele>
        <time>2021-10-23T13:39:33Z</time>
      </trkpt>
      <trkpt lat="45.18479" lon="5.56806">
        <ele>1127</ele>
        <time>2021-10-23T13:40:09Z</time>
      </trkpt>
      <trkpt lat="45.18469" lon="5.56805">
        <ele>1130</ele>
        <time>2021-10-23T13:40:22Z</time>
      </trkpt>
      <trkpt lat="45.1846" lon="5.56816">
        <ele>1135</ele>
        <time>2021-10-23T13:40:41Z</time>
      </trkpt>
      <trkpt lat="45.18451" lon="5.5683">
        <ele>1139</ele>
        <time>2021-10-23T13:40:59Z</time>
      </trkpt>
      <trkpt lat="45.18419" lon="5.56854">
        <ele>1150</ele>
        <time>2021-10-23T13:41:51Z</time>
      </trkpt>
      <trkpt lat="45.18408" lon="5.5687">
        <ele>1156</ele>
        <time>2021-10-23T13:42:14Z</time>
      </trkpt>
      <trkpt lat="45.18404" lon="5.5688">
        <ele>1161</ele>
        <time>2021-10-23T13:43:35Z</time>
      </trkpt>
      <trkpt lat="45.18393" lon="5.56871">
        <ele>1161</ele>
        <time>2021-10-23T13:43:50Z</time>
      </trkpt>
      <trkpt lat="45.1835" lon="5.5687">
        <ele>1169</ele>
        <time>2021-10-23T13:44:25Z</time>
      </trkpt>
      <trkpt lat="45.18344" lon="5.56869">
        <ele>1170</ele>
        <time>2021-10-23T13:44:31Z</time>
      </trkpt>
      <trkpt lat="45.18355" lon="5.56894">
        <ele>1175</ele>
        <time>2021-10-23T13:45:05Z</time>
      </trkpt>
      <trkpt lat="45.18353" lon="5.56904">
        <ele>1179</ele>
        <time>2021-10-23T13:45:22Z</time>
      </trkpt>
      <trkpt lat="45.18344" lon="5.56913">
        <ele>1182</ele>
        <time>2021-10-23T13:45:36Z</time>
      </trkpt>
      <trkpt lat="45.18338" lon="5.56921">
        <ele>1182</ele>
        <time>2021-10-23T13:45:59Z</time>
      </trkpt>
      <trkpt lat="45.18323" lon="5.56911">
        <ele>1183</ele>
        <time>2021-10-23T13:46:09Z</time>
      </trkpt>
      <trkpt lat="45.18315" lon="5.56911">
        <ele>1183</ele>
        <time>2021-10-23T13:46:14Z</time>
      </trkpt>
      <trkpt lat="45.1831" lon="5.56918">
        <ele>1184</ele>
        <time>2021-10-23T13:46:22Z</time>
      </trkpt>
      <trkpt lat="45.18319" lon="5.56929">
        <ele>1187</ele>
        <time>2021-10-23T13:46:36Z</time>
      </trkpt>
      <trkpt lat="45.18327" lon="5.5693">
        <ele>1188</ele>
        <time>2021-10-23T13:46:41Z</time>
      </trkpt>
      <trkpt lat="45.18333" lon="5.56937">
        <ele>1189</ele>
        <time>2021-10-23T13:46:47Z</time>
      </trkpt>
      <trkpt lat="45.18334" lon="5.56947">
        <ele>1191</ele>
        <time>2021-10-23T13:46:55Z</time>
      </trkpt>
      <trkpt lat="45.18323" lon="5.56956">
        <ele>1193</ele>
        <time>2021-10-23T13:47:10Z</time>
      </trkpt>
      <trkpt lat="45.18317" lon="5.56964">
        <ele>1194</ele>
        <time>2021-10-23T13:47:13Z</time>
      </trkpt>
      <trkpt lat="45.18313" lon="5.5697">
        <ele>1195</ele>
        <time>2021-10-23T13:47:27Z</time>
      </trkpt>
      <trkpt lat="45.18319" lon="5.56972">
        <ele>1196</ele>
        <time>2021-10-23T13:47:32Z</time>
      </trkpt>
      <trkpt lat="45.18325" lon="5.56971">
        <ele>1196</ele>
        <time>2021-10-23T13:47:36Z</time>
      </trkpt>
      <trkpt lat="45.1833" lon="5.56968">
        <ele>1197</ele>
        <time>2021-10-23T13:47:41Z</time>
      </trkpt>
      <trkpt lat="45.18336" lon="5.56969">
        <ele>1197</ele>
        <time>2021-10-23T13:47:46Z</time>
      </trkpt>
      <trkpt lat="45.18351" lon="5.56972">
        <ele>1200</ele>
        <time>2021-10-23T13:47:59Z</time>
      </trkpt>
      <trkpt lat="45.18379" lon="5.5699">
        <ele>1203</ele>
        <time>2021-10-23T13:48:26Z</time>
      </trkpt>
      <trkpt lat="45.18403" lon="5.57011">
        <ele>1210</ele>
        <time>2021-10-23T13:48:57Z</time>
      </trkpt>
      <trkpt lat="45.18422" lon="5.57039">
        <ele>1216</ele>
        <time>2021-10-23T13:49:26Z</time>
      </trkpt>
      <trkpt lat="45.18476" lon="5.57065">
        <ele>1224</ele>
        <time>2021-10-23T13:50:13Z</time>
      </trkpt>
      <trkpt lat="45.18501" lon="5.57086">
        <ele>1230</ele>
        <time>2021-10-23T13:50:44Z</time>
      </trkpt>
      <trkpt lat="45.18524" lon="5.57115">
        <ele>1235</ele>
        <time>2021-10-23T13:51:15Z</time>
      </trkpt>
      <trkpt lat="45.18547" lon="5.57184">
        <ele>1243</ele>
        <time>2021-10-23T13:52:08Z</time>
      </trkpt>
      <trkpt lat="45.18547" lon="5.57221">
        <ele>1240</ele>
        <time>2021-10-23T13:52:28Z</time>
      </trkpt>
      <trkpt lat="45.18545" lon="5.57285">
        <ele>1248</ele>
        <time>2021-10-23T13:53:23Z</time>
      </trkpt>
      <trkpt lat="45.18532" lon="5.57319">
        <ele>1255</ele>
        <time>2021-10-23T13:53:54Z</time>
      </trkpt>
      <trkpt lat="45.1853" lon="5.57351">
        <ele>1264</ele>
        <time>2021-10-23T13:54:33Z</time>
      </trkpt>
      <trkpt lat="45.18524" lon="5.57379">
        <ele>1269</ele>
        <time>2021-10-23T13:54:56Z</time>
      </trkpt>
      <trkpt lat="45.18533" lon="5.57401">
        <ele>1272</ele>
        <time>2021-10-23T13:55:16Z</time>
      </trkpt>
      <trkpt lat="45.18546" lon="5.57408">
        <ele>1274</ele>
        <time>2021-10-23T13:55:32Z</time>
      </trkpt>
      <trkpt lat="45.18562" lon="5.57416">
        <ele>1282</ele>
        <time>2021-10-23T13:56:03Z</time>
      </trkpt>
      <trkpt lat="45.18592" lon="5.57409">
        <ele>1292</ele>
        <time>2021-10-23T13:56:57Z</time>
      </trkpt>
      <trkpt lat="45.18614" lon="5.57383">
        <ele>1301</ele>
        <time>2021-10-23T13:57:40Z</time>
      </trkpt>
      <trkpt lat="45.18647" lon="5.57371">
        <ele>1311</ele>
        <time>2021-10-23T13:58:27Z</time>
      </trkpt>
      <trkpt lat="45.18671" lon="5.57362">
        <ele>1321</ele>
        <time>2021-10-23T13:59:09Z</time>
      </trkpt>
      <trkpt lat="45.18686" lon="5.5736">
        <ele>1327</ele>
        <time>2021-10-23T13:59:41Z</time>
      </trkpt>
      <trkpt lat="45.18699" lon="5.57369">
        <ele>1332</ele>
        <time>2021-10-23T14:00:07Z</time>
      </trkpt>
      <trkpt lat="45.18712" lon="5.57387">
        <ele>1339</ele>
        <time>2021-10-23T14:00:43Z</time>
      </trkpt>
      <trkpt lat="45.18726" lon="5.57395">
        <ele>1343</ele>
        <time>2021-10-23T14:01:03Z</time>
      </trkpt>
      <trkpt lat="45.1874" lon="5.57409">
        <ele>1348</ele>
        <time>2021-10-23T14:01:30Z</time>
      </trkpt>
      <trkpt lat="45.18745" lon="5.57438">
        <ele>1354</ele>
        <time>2021-10-23T14:02:03Z</time>
      </trkpt>
      <trkpt lat="45.18764" lon="5.57471">
        <ele>1359</ele>
        <time>2021-10-23T14:02:42Z</time>
      </trkpt>
      <trkpt lat="45.18773" lon="5.57511">
        <ele>1376</ele>
        <time>2021-10-23T14:04:20Z</time>
      </trkpt>
      <trkpt lat="45.18746" lon="5.57535">
        <ele>1383</ele>
        <time>2021-10-23T14:05:04Z</time>
      </trkpt>
      <trkpt lat="45.18731" lon="5.57531">
        <ele>1387</ele>
        <time>2021-10-23T14:05:31Z</time>
      </trkpt>
      <trkpt lat="45.18696" lon="5.57532">
        <ele>1398</ele>
        <time>2021-10-23T14:06:24Z</time>
      </trkpt>
      <trkpt lat="45.18693" lon="5.5756">
        <ele>1402</ele>
        <time>2021-10-23T14:06:46Z</time>
      </trkpt>
      <trkpt lat="45.18698" lon="5.5758">
        <ele>1405</ele>
        <time>2021-10-23T14:07:08Z</time>
      </trkpt>
      <trkpt lat="45.18714" lon="5.57601">
        <ele>1408</ele>
        <time>2021-10-23T14:07:29Z</time>
      </trkpt>
      <trkpt lat="45.18719" lon="5.57619">
        <ele>1408</ele>
        <time>2021-10-23T14:07:41Z</time>
      </trkpt>
      <trkpt lat="45.18749" lon="5.57632">
        <ele>1416</ele>
        <time>2021-10-23T14:08:16Z</time>
      </trkpt>
      <trkpt lat="45.18754" lon="5.57678">
        <ele>1429</ele>
        <time>2021-10-23T14:09:31Z</time>
      </trkpt>
      <trkpt lat="45.18738" lon="5.57713">
        <ele>1439</ele>
        <time>2021-10-23T14:10:35Z</time>
      </trkpt>
      <trkpt lat="45.18705" lon="5.57754">
        <ele>1447</ele>
        <time>2021-10-23T14:11:15Z</time>
      </trkpt>
      <trkpt lat="45.18681" lon="5.57763">
        <ele>1450</ele>
        <time>2021-10-23T14:11:35Z</time>
      </trkpt>
      <trkpt lat="45.1865" lon="5.57766">
        <ele>1453</ele>
        <time>2021-10-23T14:11:58Z</time>
      </trkpt>
      <trkpt lat="45.18627" lon="5.57792">
        <ele>1454</ele>
        <time>2021-10-23T14:12:18Z</time>
      </trkpt>
      <trkpt lat="45.18589" lon="5.57853">
        <ele>1460</ele>
        <time>2021-10-23T14:13:58Z</time>
      </trkpt>
      <trkpt lat="45.1859" lon="5.57937">
        <ele>1471</ele>
        <time>2021-10-23T14:14:46Z</time>
      </trkpt>
      <trkpt lat="45.18572" lon="5.57968">
        <ele>1479</ele>
        <time>2021-10-23T14:15:21Z</time>
      </trkpt>
      <trkpt lat="45.18535" lon="5.58004">
        <ele>1489</ele>
        <time>2021-10-23T14:16:07Z</time>
      </trkpt>
      <trkpt lat="45.18509" lon="5.58029">
        <ele>1498</ele>
        <time>2021-10-23T14:16:49Z</time>
      </trkpt>
      <trkpt lat="45.18478" lon="5.58044">
        <ele>1501</ele>
        <time>2021-10-23T14:17:12Z</time>
      </trkpt>
      <trkpt lat="45.18467" lon="5.58023">
        <ele>1505</ele>
        <time>2021-10-23T14:17:54Z</time>
      </trkpt>
      <trkpt lat="45.18482" lon="5.58018">
        <ele>1505</ele>
        <time>2021-10-23T14:18:07Z</time>
      </trkpt>
      <trkpt lat="45.1851" lon="5.58015">
        <ele>1506</ele>
        <time>2021-10-23T14:18:30Z</time>
      </trkpt>
      <trkpt lat="45.18522" lon="5.58026">
        <ele>1507</ele>
        <time>2021-10-23T14:18:39Z</time>
      </trkpt>
      <trkpt lat="45.18549" lon="5.58014">
        <ele>1507</ele>
        <time>2021-10-23T14:19:01Z</time>
      </trkpt>
      <trkpt lat="45.18562" lon="5.58028">
        <ele>1507</ele>
        <time>2021-10-23T14:19:32Z</time>
      </trkpt>
      <trkpt lat="45.18595" lon="5.58072">
        <ele>1508</ele>
        <time>2021-10-23T14:20:12Z</time>
      </trkpt>
      <trkpt lat="45.18609" lon="5.58078">
        <ele>1508</ele>
        <time>2021-10-23T14:20:20Z</time>
      </trkpt>
      <trkpt lat="45.18614" lon="5.58098">
        <ele>1509</ele>
        <time>2021-10-23T14:20:31Z</time>
      </trkpt>
      <trkpt lat="45.18626" lon="5.58113">
        <ele>1509</ele>
        <time>2021-10-23T14:20:41Z</time>
      </trkpt>
      <trkpt lat="45.18631" lon="5.58132">
        <ele>1509</ele>
        <time>2021-10-23T14:20:53Z</time>
      </trkpt>
      <trkpt lat="45.18634" lon="5.58153">
        <ele>1510</ele>
        <time>2021-10-23T14:21:04Z</time>
      </trkpt>
      <trkpt lat="45.18641" lon="5.5817">
        <ele>1510</ele>
        <time>2021-10-23T14:21:13Z</time>
      </trkpt>
      <trkpt lat="45.1864" lon="5.58206">
        <ele>1510</ele>
        <time>2021-10-23T14:21:32Z</time>
      </trkpt>
      <trkpt lat="45.18649" lon="5.58223">
        <ele>1510</ele>
        <time>2021-10-23T14:21:44Z</time>
      </trkpt>
      <trkpt lat="45.18662" lon="5.58235">
        <ele>1510</ele>
        <time>2021-10-23T14:21:52Z</time>
      </trkpt>
      <trkpt lat="45.18667" lon="5.58258">
        <ele>1511</ele>
        <time>2021-10-23T14:22:04Z</time>
      </trkpt>
      <trkpt lat="45.18666" lon="5.58278">
        <ele>1511</ele>
        <time>2021-10-23T14:22:12Z</time>
      </trkpt>
      <trkpt lat="45.18677" lon="5.58292">
        <ele>1511</ele>
        <time>2021-10-23T14:22:23Z</time>
      </trkpt>
      <trkpt lat="45.1868" lon="5.58338">
        <ele>1511</ele>
        <time>2021-10-23T14:22:41Z</time>
      </trkpt>
      <trkpt lat="45.18719" lon="5.58383">
        <ele>1512</ele>
        <time>2021-10-23T14:23:35Z</time>
      </trkpt>
      <trkpt lat="45.18741" lon="5.58393">
        <ele>1513</ele>
        <time>2021-10-23T14:23:50Z</time>
      </trkpt>
      <trkpt lat="45.18752" lon="5.58403">
        <ele>1514</ele>
        <time>2021-10-23T14:24:03Z</time>
      </trkpt>
      <trkpt lat="45.18766" lon="5.58417">
        <ele>1513</ele>
        <time>2021-10-23T14:24:15Z</time>
      </trkpt>
      <trkpt lat="45.1878" lon="5.58444">
        <ele>1514</ele>
        <time>2021-10-23T14:24:35Z</time>
      </trkpt>
      <trkpt lat="45.18792" lon="5.58455">
        <ele>1515</ele>
        <time>2021-10-23T14:24:43Z</time>
      </trkpt>
      <trkpt lat="45.18806" lon="5.58465">
        <ele>1515</ele>
        <time>2021-10-23T14:24:57Z</time>
      </trkpt>
      <trkpt lat="45.18864" lon="5.58438">
        <ele>1518</ele>
        <time>2021-10-23T14:25:30Z</time>
      </trkpt>
      <trkpt lat="45.18877" lon="5.58436">
        <ele>1517</ele>
        <time>2021-10-23T14:25:38Z</time>
      </trkpt>
      <trkpt lat="45.18893" lon="5.58434">
        <ele>1517</ele>
        <time>2021-10-23T14:25:48Z</time>
      </trkpt>
      <trkpt lat="45.18899" lon="5.58432">
        <ele>1520</ele>
        <time>2021-10-23T14:25:51Z</time>
      </trkpt>
      <trkpt lat="45.18904" lon="5.58434">
        <ele>1518</ele>
        <time>2021-10-23T14:25:55Z</time>
      </trkpt>
      <trkpt lat="45.1891" lon="5.58435">
        <ele>1520</ele>
        <time>2021-10-23T14:25:59Z</time>
      </trkpt>
      <trkpt lat="45.18916" lon="5.58433">
        <ele>1519</ele>
        <time>2021-10-23T14:26:04Z</time>
      </trkpt>
      <trkpt lat="45.18922" lon="5.58433">
        <ele>1521</ele>
        <time>2021-10-23T14:26:08Z</time>
      </trkpt>
      <trkpt lat="45.18935" lon="5.58433">
        <ele>1519</ele>
        <time>2021-10-23T14:26:20Z</time>
      </trkpt>
      <trkpt lat="45.18934" lon="5.58433">
        <ele>1521</ele>
        <time>2021-10-23T14:27:33Z</time>
      </trkpt>
      <trkpt lat="45.18928" lon="5.58433">
        <ele>1521</ele>
        <time>2021-10-23T14:27:35Z</time>
      </trkpt>
      <trkpt lat="45.18922" lon="5.58432">
        <ele>1520</ele>
        <time>2021-10-23T14:27:37Z</time>
      </trkpt>
      <trkpt lat="45.1891" lon="5.58431">
        <ele>1520</ele>
        <time>2021-10-23T14:27:42Z</time>
      </trkpt>
      <trkpt lat="45.18905" lon="5.5843">
        <ele>1520</ele>
        <time>2021-10-23T14:27:44Z</time>
      </trkpt>
      <trkpt lat="45.189" lon="5.58424">
        <ele>1520</ele>
        <time>2021-10-23T14:27:46Z</time>
      </trkpt>
      <trkpt lat="45.18895" lon="5.58416">
        <ele>1519</ele>
        <time>2021-10-23T14:27:49Z</time>
      </trkpt>
      <trkpt lat="45.18883" lon="5.58403">
        <ele>1515</ele>
        <time>2021-10-23T14:27:59Z</time>
      </trkpt>
      <trkpt lat="45.18871" lon="5.58399">
        <ele>1512</ele>
        <time>2021-10-23T14:28:09Z</time>
      </trkpt>
      <trkpt lat="45.18855" lon="5.58391">
        <ele>1506</ele>
        <time>2021-10-23T14:28:21Z</time>
      </trkpt>
      <trkpt lat="45.1885" lon="5.58386">
        <ele>1506</ele>
        <time>2021-10-23T14:28:25Z</time>
      </trkpt>
      <trkpt lat="45.18844" lon="5.5838">
        <ele>1504</ele>
        <time>2021-10-23T14:28:28Z</time>
      </trkpt>
      <trkpt lat="45.18837" lon="5.58369">
        <ele>1504</ele>
        <time>2021-10-23T14:28:33Z</time>
      </trkpt>
      <trkpt lat="45.18835" lon="5.58362">
        <ele>1502</ele>
        <time>2021-10-23T14:28:37Z</time>
      </trkpt>
      <trkpt lat="45.18831" lon="5.58356">
        <ele>1503</ele>
        <time>2021-10-23T14:28:41Z</time>
      </trkpt>
      <trkpt lat="45.18828" lon="5.5835">
        <ele>1502</ele>
        <time>2021-10-23T14:28:45Z</time>
      </trkpt>
      <trkpt lat="45.18826" lon="5.58341">
        <ele>1501</ele>
        <time>2021-10-23T14:28:50Z</time>
      </trkpt>
      <trkpt lat="45.18833" lon="5.58308">
        <ele>1496</ele>
        <time>2021-10-23T14:29:04Z</time>
      </trkpt>
      <trkpt lat="45.18836" lon="5.58297">
        <ele>1494</ele>
        <time>2021-10-23T14:29:08Z</time>
      </trkpt>
      <trkpt lat="45.1884" lon="5.58291">
        <ele>1494</ele>
        <time>2021-10-23T14:29:11Z</time>
      </trkpt>
      <trkpt lat="45.18852" lon="5.58262">
        <ele>1488</ele>
        <time>2021-10-23T14:29:24Z</time>
      </trkpt>
      <trkpt lat="45.18854" lon="5.58245">
        <ele>1486</ele>
        <time>2021-10-23T14:29:31Z</time>
      </trkpt>
      <trkpt lat="45.18855" lon="5.58225">
        <ele>1482</ele>
        <time>2021-10-23T14:29:40Z</time>
      </trkpt>
      <trkpt lat="45.18853" lon="5.58215">
        <ele>1480</ele>
        <time>2021-10-23T14:29:44Z</time>
      </trkpt>
      <trkpt lat="45.18849" lon="5.58205">
        <ele>1479</ele>
        <time>2021-10-23T14:29:49Z</time>
      </trkpt>
      <trkpt lat="45.18847" lon="5.58194">
        <ele>1477</ele>
        <time>2021-10-23T14:29:56Z</time>
      </trkpt>
      <trkpt lat="45.18848" lon="5.58172">
        <ele>1471</ele>
        <time>2021-10-23T14:30:09Z</time>
      </trkpt>
      <trkpt lat="45.18858" lon="5.58141">
        <ele>1465</ele>
        <time>2021-10-23T14:30:27Z</time>
      </trkpt>
      <trkpt lat="45.18864" lon="5.58137">
        <ele>1463</ele>
        <time>2021-10-23T14:30:33Z</time>
      </trkpt>
      <trkpt lat="45.18879" lon="5.58128">
        <ele>1458</ele>
        <time>2021-10-23T14:30:45Z</time>
      </trkpt>
      <trkpt lat="45.18908" lon="5.58082">
        <ele>1449</ele>
        <time>2021-10-23T14:31:10Z</time>
      </trkpt>
      <trkpt lat="45.18917" lon="5.58051">
        <ele>1444</ele>
        <time>2021-10-23T14:31:30Z</time>
      </trkpt>
      <trkpt lat="45.18918" lon="5.58039">
        <ele>1443</ele>
        <time>2021-10-23T14:31:35Z</time>
      </trkpt>
      <trkpt lat="45.18924" lon="5.58031">
        <ele>1440</ele>
        <time>2021-10-23T14:31:42Z</time>
      </trkpt>
      <trkpt lat="45.18932" lon="5.58004">
        <ele>1435</ele>
        <time>2021-10-23T14:31:54Z</time>
      </trkpt>
      <trkpt lat="45.18938" lon="5.57995">
        <ele>1433</ele>
        <time>2021-10-23T14:31:59Z</time>
      </trkpt>
      <trkpt lat="45.18938" lon="5.57997">
        <ele>1427</ele>
        <time>2021-10-23T14:32:18Z</time>
      </trkpt>
      <trkpt lat="45.18924" lon="5.58003">
        <ele>1428</ele>
        <time>2021-10-23T14:32:42Z</time>
      </trkpt>
      <trkpt lat="45.1892" lon="5.58007">
        <ele>1427</ele>
        <time>2021-10-23T14:32:44Z</time>
      </trkpt>
      <trkpt lat="45.18911" lon="5.58011">
        <ele>1427</ele>
        <time>2021-10-23T14:32:48Z</time>
      </trkpt>
      <trkpt lat="45.18865" lon="5.58018">
        <ele>1424</ele>
        <time>2021-10-23T14:33:08Z</time>
      </trkpt>
      <trkpt lat="45.18847" lon="5.5801">
        <ele>1423</ele>
        <time>2021-10-23T14:33:16Z</time>
      </trkpt>
      <trkpt lat="45.1883" lon="5.57988">
        <ele>1421</ele>
        <time>2021-10-23T14:33:24Z</time>
      </trkpt>
      <trkpt lat="45.18814" lon="5.57977">
        <ele>1421</ele>
        <time>2021-10-23T14:33:30Z</time>
      </trkpt>
      <trkpt lat="45.18797" lon="5.57965">
        <ele>1421</ele>
        <time>2021-10-23T14:33:37Z</time>
      </trkpt>
      <trkpt lat="45.18773" lon="5.57915">
        <ele>1419</ele>
        <time>2021-10-23T14:34:01Z</time>
      </trkpt>
      <trkpt lat="45.18733" lon="5.57857">
        <ele>1423</ele>
        <time>2021-10-23T14:34:37Z</time>
      </trkpt>
      <trkpt lat="45.18729" lon="5.57837">
        <ele>1421</ele>
        <time>2021-10-23T14:34:47Z</time>
      </trkpt>
      <trkpt lat="45.18733" lon="5.57814">
        <ele>1421</ele>
        <time>2021-10-23T14:34:58Z</time>
      </trkpt>
      <trkpt lat="45.18738" lon="5.57795">
        <ele>1421</ele>
        <time>2021-10-23T14:35:08Z</time>
      </trkpt>
      <trkpt lat="45.18747" lon="5.57776">
        <ele>1421</ele>
        <time>2021-10-23T14:35:19Z</time>
      </trkpt>
      <trkpt lat="45.18756" lon="5.57737">
        <ele>1420</ele>
        <time>2021-10-23T14:35:42Z</time>
      </trkpt>
      <trkpt lat="45.18755" lon="5.57694">
        <ele>1420</ele>
        <time>2021-10-23T14:35:58Z</time>
      </trkpt>
      <trkpt lat="45.18752" lon="5.57652">
        <ele>1424</ele>
        <time>2021-10-23T14:36:15Z</time>
      </trkpt>
      <trkpt lat="45.18751" lon="5.57645">
        <ele>1424</ele>
        <time>2021-10-23T14:36:19Z</time>
      </trkpt>
      <trkpt lat="45.1875" lon="5.57636">
        <ele>1422</ele>
        <time>2021-10-23T14:36:23Z</time>
      </trkpt>
      <trkpt lat="45.18747" lon="5.5763">
        <ele>1420</ele>
        <time>2021-10-23T14:36:27Z</time>
      </trkpt>
      <trkpt lat="45.18739" lon="5.57621">
        <ele>1416</ele>
        <time>2021-10-23T14:36:35Z</time>
      </trkpt>
      <trkpt lat="45.18723" lon="5.57607">
        <ele>1412</ele>
        <time>2021-10-23T14:36:46Z</time>
      </trkpt>
      <trkpt lat="45.18715" lon="5.57598">
        <ele>1410</ele>
        <time>2021-10-23T14:36:50Z</time>
      </trkpt>
      <trkpt lat="45.18707" lon="5.57585">
        <ele>1409</ele>
        <time>2021-10-23T14:36:54Z</time>
      </trkpt>
      <trkpt lat="45.18692" lon="5.57559">
        <ele>1406</ele>
        <time>2021-10-23T14:37:06Z</time>
      </trkpt>
      <trkpt lat="45.18688" lon="5.57547">
        <ele>1402</ele>
        <time>2021-10-23T14:37:16Z</time>
      </trkpt>
      <trkpt lat="45.18719" lon="5.57538">
        <ele>1388</ele>
        <time>2021-10-23T14:37:54Z</time>
      </trkpt>
      <trkpt lat="45.18736" lon="5.57535">
        <ele>1385</ele>
        <time>2021-10-23T14:38:11Z</time>
      </trkpt>
      <trkpt lat="45.18743" lon="5.57528">
        <ele>1382</ele>
        <time>2021-10-23T14:38:15Z</time>
      </trkpt>
      <trkpt lat="45.18752" lon="5.57523">
        <ele>1381</ele>
        <time>2021-10-23T14:38:23Z</time>
      </trkpt>
      <trkpt lat="45.18781" lon="5.57487">
        <ele>1373</ele>
        <time>2021-10-23T14:38:43Z</time>
      </trkpt>
      <trkpt lat="45.18788" lon="5.57468">
        <ele>1370</ele>
        <time>2021-10-23T14:38:50Z</time>
      </trkpt>
      <trkpt lat="45.18766" lon="5.57467">
        <ele>1360</ele>
        <time>2021-10-23T14:39:13Z</time>
      </trkpt>
      <trkpt lat="45.1874" lon="5.57439">
        <ele>1354</ele>
        <time>2021-10-23T14:39:35Z</time>
      </trkpt>
      <trkpt lat="45.18731" lon="5.57418">
        <ele>1350</ele>
        <time>2021-10-23T14:39:47Z</time>
      </trkpt>
      <trkpt lat="45.18728" lon="5.57397">
        <ele>1344</ele>
        <time>2021-10-23T14:40:00Z</time>
      </trkpt>
      <trkpt lat="45.18717" lon="5.57385">
        <ele>1340</ele>
        <time>2021-10-23T14:40:09Z</time>
      </trkpt>
      <trkpt lat="45.18699" lon="5.5735">
        <ele>1331</ele>
        <time>2021-10-23T14:40:31Z</time>
      </trkpt>
      <trkpt lat="45.18687" lon="5.57334">
        <ele>1326</ele>
        <time>2021-10-23T14:40:43Z</time>
      </trkpt>
      <trkpt lat="45.18646" lon="5.57341">
        <ele>1311</ele>
        <time>2021-10-23T14:41:24Z</time>
      </trkpt>
      <trkpt lat="45.18605" lon="5.57375">
        <ele>1296</ele>
        <time>2021-10-23T14:42:05Z</time>
      </trkpt>
      <trkpt lat="45.18577" lon="5.57387">
        <ele>1288</ele>
        <time>2021-10-23T14:42:28Z</time>
      </trkpt>
      <trkpt lat="45.18544" lon="5.57375">
        <ele>1275</ele>
        <time>2021-10-23T14:43:03Z</time>
      </trkpt>
      <trkpt lat="45.18522" lon="5.57355">
        <ele>1266</ele>
        <time>2021-10-23T14:43:29Z</time>
      </trkpt>
      <trkpt lat="45.18528" lon="5.57312">
        <ele>1255</ele>
        <time>2021-10-23T14:43:57Z</time>
      </trkpt>
      <trkpt lat="45.18542" lon="5.57273">
        <ele>1246</ele>
        <time>2021-10-23T14:44:21Z</time>
      </trkpt>
      <trkpt lat="45.18548" lon="5.57257">
        <ele>1243</ele>
        <time>2021-10-23T14:45:08Z</time>
      </trkpt>
      <trkpt lat="45.18564" lon="5.57256">
        <ele>1232</ele>
        <time>2021-10-23T14:48:53Z</time>
      </trkpt>
      <trkpt lat="45.18578" lon="5.57265">
        <ele>1219</ele>
        <time>2021-10-23T14:49:41Z</time>
      </trkpt>
      <trkpt lat="45.18592" lon="5.57207">
        <ele>1202</ele>
        <time>2021-10-23T14:50:54Z</time>
      </trkpt>
      <trkpt lat="45.18597" lon="5.57162">
        <ele>1191</ele>
        <time>2021-10-23T14:51:19Z</time>
      </trkpt>
      <trkpt lat="45.18598" lon="5.57122">
        <ele>1182</ele>
        <time>2021-10-23T14:51:39Z</time>
      </trkpt>
      <trkpt lat="45.18612" lon="5.57069">
        <ele>1170</ele>
        <time>2021-10-23T14:52:12Z</time>
      </trkpt>
      <trkpt lat="45.18606" lon="5.57025">
        <ele>1158</ele>
        <time>2021-10-23T14:52:43Z</time>
      </trkpt>
      <trkpt lat="45.18595" lon="5.56943">
        <ele>1143</ele>
        <time>2021-10-23T14:53:23Z</time>
      </trkpt>
      <trkpt lat="45.18592" lon="5.56877">
        <ele>1132</ele>
        <time>2021-10-23T14:53:56Z</time>
      </trkpt>
      <trkpt lat="45.18595" lon="5.56855">
        <ele>1129</ele>
        <time>2021-10-23T14:54:02Z</time>
      </trkpt>
      <trkpt lat="45.18588" lon="5.56836">
        <ele>1128</ele>
        <time>2021-10-23T14:54:11Z</time>
      </trkpt>
      <trkpt lat="45.18571" lon="5.56805">
        <ele>1121</ele>
        <time>2021-10-23T14:54:30Z</time>
      </trkpt>
      <trkpt lat="45.18563" lon="5.56783">
        <ele>1119</ele>
        <time>2021-10-23T14:54:41Z</time>
      </trkpt>
      <trkpt lat="45.18563" lon="5.56761">
        <ele>1115</ele>
        <time>2021-10-23T14:54:49Z</time>
      </trkpt>
      <trkpt lat="45.18568" lon="5.56727">
        <ele>1113</ele>
        <time>2021-10-23T14:54:57Z</time>
      </trkpt>
      <trkpt lat="45.1857" lon="5.5672">
        <ele>1113</ele>
        <time>2021-10-23T14:54:59Z</time>
      </trkpt>
      <trkpt lat="45.18572" lon="5.56714">
        <ele>1112</ele>
        <time>2021-10-23T14:55:01Z</time>
      </trkpt>
      <trkpt lat="45.18576" lon="5.56702">
        <ele>1110</ele>
        <time>2021-10-23T14:55:05Z</time>
      </trkpt>
      <trkpt lat="45.18584" lon="5.56666">
        <ele>1106</ele>
        <time>2021-10-23T14:55:18Z</time>
      </trkpt>
      <trkpt lat="45.18597" lon="5.56637">
        <ele>1103</ele>
        <time>2021-10-23T14:55:30Z</time>
      </trkpt>
      <trkpt lat="45.18599" lon="5.56628">
        <ele>1103</ele>
        <time>2021-10-23T14:55:33Z</time>
      </trkpt>
      <trkpt lat="45.18601" lon="5.56616">
        <ele>1100</ele>
        <time>2021-10-23T14:55:37Z</time>
      </trkpt>
      <trkpt lat="45.1861" lon="5.56592">
        <ele>1097</ele>
        <time>2021-10-23T14:55:46Z</time>
      </trkpt>
      <trkpt lat="45.18614" lon="5.56584">
        <ele>1097</ele>
        <time>2021-10-23T14:55:49Z</time>
      </trkpt>
      <trkpt lat="45.18612" lon="5.5657">
        <ele>1094</ele>
        <time>2021-10-23T14:56:31Z</time>
      </trkpt>
      <trkpt lat="45.18615" lon="5.56557">
        <ele>1094</ele>
        <time>2021-10-23T14:56:34Z</time>
      </trkpt>
      <trkpt lat="45.18619" lon="5.56543">
        <ele>1092</ele>
        <time>2021-10-23T14:56:37Z</time>
      </trkpt>
      <trkpt lat="45.18624" lon="5.56531">
        <ele>1092</ele>
        <time>2021-10-23T14:56:39Z</time>
      </trkpt>
      <trkpt lat="45.18631" lon="5.56495">
        <ele>1091</ele>
        <time>2021-10-23T14:56:43Z</time>
      </trkpt>
      <trkpt lat="45.18639" lon="5.56479">
        <ele>1091</ele>
        <time>2021-10-23T14:56:45Z</time>
      </trkpt>
      <trkpt lat="45.18649" lon="5.56415">
        <ele>1086</ele>
        <time>2021-10-23T14:56:51Z</time>
      </trkpt>
      <trkpt lat="45.1865" lon="5.56402">
        <ele>1085</ele>
        <time>2021-10-23T14:56:53Z</time>
      </trkpt>
      <trkpt lat="45.18644" lon="5.56383">
        <ele>1083</ele>
        <time>2021-10-23T14:56:57Z</time>
      </trkpt>
      <trkpt lat="45.18599" lon="5.56323">
        <ele>1079</ele>
        <time>2021-10-23T14:57:05Z</time>
      </trkpt>
      <trkpt lat="45.18591" lon="5.56312">
        <ele>1079</ele>
        <time>2021-10-23T14:57:06Z</time>
      </trkpt>
      <trkpt lat="45.1859" lon="5.56301">
        <ele>1079</ele>
        <time>2021-10-23T14:57:07Z</time>
      </trkpt>
      <trkpt lat="45.1859" lon="5.56287">
        <ele>1079</ele>
        <time>2021-10-23T14:57:08Z</time>
      </trkpt>
      <trkpt lat="45.18586" lon="5.56268">
        <ele>1079</ele>
        <time>2021-10-23T14:57:10Z</time>
      </trkpt>
      <trkpt lat="45.18586" lon="5.56259">
        <ele>1079</ele>
        <time>2021-10-23T14:57:11Z</time>
      </trkpt>
      <trkpt lat="45.18593" lon="5.56238">
        <ele>1081</ele>
        <time>2021-10-23T14:57:14Z</time>
      </trkpt>
      <trkpt lat="45.18616" lon="5.56204">
        <ele>1083</ele>
        <time>2021-10-23T14:57:20Z</time>
      </trkpt>
      <trkpt lat="45.18606" lon="5.56177">
        <ele>1083</ele>
        <time>2021-10-23T14:57:24Z</time>
      </trkpt>
      <trkpt lat="45.18341" lon="5.55863">
        <ele>1077</ele>
        <time>2021-10-23T14:57:55Z</time>
      </trkpt>
      <trkpt lat="45.18175" lon="5.55747">
        <ele>1073</ele>
        <time>2021-10-23T14:58:10Z</time>
      </trkpt>
      <trkpt lat="45.18158" lon="5.55724">
        <ele>1072</ele>
        <time>2021-10-23T14:58:12Z</time>
      </trkpt>
      <trkpt lat="45.18149" lon="5.55713">
        <ele>1072</ele>
        <time>2021-10-23T14:58:13Z</time>
      </trkpt>
      <trkpt lat="45.18116" lon="5.55652">
        <ele>1071</ele>
        <time>2021-10-23T14:58:18Z</time>
      </trkpt>
      <trkpt lat="45.18102" lon="5.55625">
        <ele>1066</ele>
        <time>2021-10-23T14:58:24Z</time>
      </trkpt>
      <trkpt lat="45.18085" lon="5.55586">
        <ele>1066</ele>
        <time>2021-10-23T14:58:29Z</time>
      </trkpt>
      <trkpt lat="45.18084" lon="5.55574">
        <ele>1064</ele>
        <time>2021-10-23T14:58:42Z</time>
      </trkpt>
      <trkpt lat="45.18057" lon="5.5552">
        <ele>1064</ele>
        <time>2021-10-23T14:58:49Z</time>
      </trkpt>
      <trkpt lat="45.18046" lon="5.55498">
        <ele>1063</ele>
        <time>2021-10-23T14:58:53Z</time>
      </trkpt>
      <trkpt lat="45.18056" lon="5.55484">
        <ele>1062</ele>
        <time>2021-10-23T14:58:57Z</time>
      </trkpt>
      <trkpt lat="45.18126" lon="5.55374">
        <ele>1065</ele>
        <time>2021-10-23T14:59:09Z</time>
      </trkpt>
      <trkpt lat="45.18128" lon="5.55358">
        <ele>1065</ele>
        <time>2021-10-23T14:59:10Z</time>
      </trkpt>
      <trkpt lat="45.18137" lon="5.55334">
        <ele>1066</ele>
        <time>2021-10-23T14:59:12Z</time>
      </trkpt>
      <trkpt lat="45.18144" lon="5.55329">
        <ele>1066</ele>
        <time>2021-10-23T14:59:13Z</time>
      </trkpt>
      <trkpt lat="45.18156" lon="5.55323">
        <ele>1066</ele>
        <time>2021-10-23T14:59:15Z</time>
      </trkpt>
      <trkpt lat="45.18161" lon="5.5532">
        <ele>1066</ele>
        <time>2021-10-23T14:59:16Z</time>
      </trkpt>
      <trkpt lat="45.18169" lon="5.55319">
        <ele>1066</ele>
        <time>2021-10-23T14:59:17Z</time>
      </trkpt>
      <trkpt lat="45.18175" lon="5.55326">
        <ele>1067</ele>
        <time>2021-10-23T14:59:18Z</time>
      </trkpt>
      <trkpt lat="45.18181" lon="5.55334">
        <ele>1068</ele>
        <time>2021-10-23T14:59:19Z</time>
      </trkpt>
      <trkpt lat="45.18187" lon="5.55343">
        <ele>1068</ele>
        <time>2021-10-23T14:59:20Z</time>
      </trkpt>
      <trkpt lat="45.18194" lon="5.55351">
        <ele>1069</ele>
        <time>2021-10-23T14:59:21Z</time>
      </trkpt>
      <trkpt lat="45.18202" lon="5.55359">
        <ele>1069</ele>
        <time>2021-10-23T14:59:22Z</time>
      </trkpt>
      <trkpt lat="45.18209" lon="5.55367">
        <ele>1069</ele>
        <time>2021-10-23T14:59:23Z</time>
      </trkpt>
      <trkpt lat="45.18216" lon="5.55376">
        <ele>1069</ele>
        <time>2021-10-23T14:59:24Z</time>
      </trkpt>
      <trkpt lat="45.1823" lon="5.55394">
        <ele>1071</ele>
        <time>2021-10-23T14:59:26Z</time>
      </trkpt>
      <trkpt lat="45.18237" lon="5.55403">
        <ele>1071</ele>
        <time>2021-10-23T14:59:27Z</time>
      </trkpt>
      <trkpt lat="45.18243" lon="5.55411">
        <ele>1071</ele>
        <time>2021-10-23T14:59:28Z</time>
      </trkpt>
      <trkpt lat="45.18249" lon="5.55418">
        <ele>1071</ele>
        <time>2021-10-23T14:59:29Z</time>
      </trkpt>
      <trkpt lat="45.18254" lon="5.55427">
        <ele>1072</ele>
        <time>2021-10-23T14:59:30Z</time>
      </trkpt>
      <trkpt lat="45.18309" lon="5.55498">
        <ele>1074</ele>
        <time>2021-10-23T14:59:40Z</time>
      </trkpt>
      <trkpt lat="45.18323" lon="5.55511">
        <ele>1076</ele>
        <time>2021-10-23T14:59:42Z</time>
      </trkpt>
      <trkpt lat="45.18331" lon="5.55515">
        <ele>1076</ele>
        <time>2021-10-23T14:59:43Z</time>
      </trkpt>
      <trkpt lat="45.1834" lon="5.55517">
        <ele>1077</ele>
        <time>2021-10-23T14:59:44Z</time>
      </trkpt>
      <trkpt lat="45.18348" lon="5.55514">
        <ele>1077</ele>
        <time>2021-10-23T14:59:45Z</time>
      </trkpt>
      <trkpt lat="45.18362" lon="5.55501">
        <ele>1078</ele>
        <time>2021-10-23T14:59:47Z</time>
      </trkpt>
      <trkpt lat="45.18367" lon="5.55492">
        <ele>1078</ele>
        <time>2021-10-23T14:59:48Z</time>
      </trkpt>
      <trkpt lat="45.18381" lon="5.55449">
        <ele>1081</ele>
        <time>2021-10-23T14:59:54Z</time>
      </trkpt>
      <trkpt lat="45.18381" lon="5.55441">
        <ele>1081</ele>
        <time>2021-10-23T15:00:16Z</time>
      </trkpt>
      <trkpt lat="45.18379" lon="5.55429">
        <ele>1081</ele>
        <time>2021-10-23T15:00:51Z</time>
      </trkpt>
      <trkpt lat="45.18379" lon="5.5542">
        <ele>1082</ele>
        <time>2021-10-23T15:00:55Z</time>
      </trkpt>
      <trkpt lat="45.18378" lon="5.55413">
        <ele>1081</ele>
        <time>2021-10-23T15:00:58Z</time>
      </trkpt>
      <trkpt lat="45.18376" lon="5.55404">
        <ele>1083</ele>
        <time>2021-10-23T15:01:02Z</time>
      </trkpt>
      <trkpt lat="45.18375" lon="5.55396">
        <ele>1082</ele>
        <time>2021-10-23T15:01:06Z</time>
      </trkpt>
      <trkpt lat="45.18373" lon="5.55389">
        <ele>1084</ele>
        <time>2021-10-23T15:01:11Z</time>
      </trkpt>
      <trkpt lat="45.18371" lon="5.55381">
        <ele>1083</ele>
        <time>2021-10-23T15:01:15Z</time>
      </trkpt>
      <trkpt lat="45.18369" lon="5.55373">
        <ele>1082</ele>
        <time>2021-10-23T15:01:19Z</time>
      </trkpt>
      <trkpt lat="45.18365" lon="5.55367">
        <ele>1084</ele>
        <time>2021-10-23T15:01:23Z</time>
      </trkpt>
      <trkpt lat="45.18362" lon="5.55358">
        <ele>1083</ele>
        <time>2021-10-23T15:01:28Z</time>
      </trkpt>
      <trkpt lat="45.18362" lon="5.55348">
        <ele>1084</ele>
        <time>2021-10-23T15:01:33Z</time>
      </trkpt>
      <trkpt lat="45.18361" lon="5.5534">
        <ele>1083</ele>
        <time>2021-10-23T15:01:37Z</time>
      </trkpt>
      <trkpt lat="45.18359" lon="5.55332">
        <ele>1083</ele>
        <time>2021-10-23T15:01:43Z</time>
      </trkpt>
      <trkpt lat="45.18353" lon="5.55323">
        <ele>1084</ele>
        <time>2021-10-23T15:01:47Z</time>
      </trkpt>
      <trkpt lat="45.1835" lon="5.55317">
        <ele>1083</ele>
        <time>2021-10-23T15:01:51Z</time>
      </trkpt>
      <trkpt lat="45.18346" lon="5.55301">
        <ele>1083</ele>
        <time>2021-10-23T15:01:59Z</time>
      </trkpt>
      <trkpt lat="45.18344" lon="5.55293">
        <ele>1083</ele>
        <time>2021-10-23T15:02:04Z</time>
      </trkpt>
      <trkpt lat="45.18341" lon="5.55285">
        <ele>1082</ele>
        <time>2021-10-23T15:02:10Z</time>
      </trkpt>
      <trkpt lat="45.18342" lon="5.55238">
        <ele>1087</ele>
        <time>2021-10-23T15:03:32Z</time>
      </trkpt>
      <trkpt lat="45.18333" lon="5.55205">
        <ele>1085</ele>
        <time>2021-10-23T15:04:33Z</time>
      </trkpt>
      <trkpt lat="45.18333" lon="5.55205">
        <ele>1085</ele>
        <time>2021-10-23T15:04:34Z</time>
      </trkpt>
    </trkseg>
  </trk>
  <rte>
    <name><![CDATA[4 avr. 2019 à 23:11:12]]></name>
    <cmt><![CDATA[4 avr. 2019 à 23:11:12]]></cmt>
    <desc><![CDATA[{DC1}Heure de fin	: 
Durée totale	: 0h00:00
Moyenne globale	: -
Pente moyenne	: 0.00 %
Aire incluse	: 7.4932 ha
Détails par segments
distance  | durée    | vit.moy. | vit.max. | déniv. + | déniv -
   km     | hh:mn:ss |   km/h   |   km/h   |    m     |    m
     0.81 | 00:00:00 |      0.0 |      0.0 |        0 |        0{DC2}]]></desc>
      <rtept lat="45.60077" lon="6.18221">
        <ele>1608.6</ele>
      </rtept>
      <rtept lat="45.59468" lon="6.1822">
        <ele>1760.9</ele>
      </rtept>
      <rtept lat="45.59468" lon="6.1822">
        <ele>1760.9</ele>
      </rtept>
    </rte>
  <rte>
    <name><![CDATA[10 févr. 2019 à 15:16:12]]></name>
    <cmt><![CDATA[10 févr. 2019 à 15:16:12]]></cmt>
    <desc><![CDATA[{DC1}Heure de fin	: 00:09:21
Durée totale	: -17690439h43:48
Moyenne globale	: -
Pente moyenne	: 7.00 %
Aire incluse	: 221.0936 ha
Détails par segments
distance  | durée    | vit.moy. | vit.max. | déniv. + | déniv -
   km     | hh:mn:ss |   km/h   |   km/h   |    m     |    m
     7.48 | 00:00:00 |      0.0 |      0.0 |        0 |        0{DC2}]]></desc>
      <rtept lat="45.55203" lon="5.93805">
        <ele>376</ele>
      </rtept>
      <rtept lat="45.55177" lon="5.93873">
        <ele>369</ele>
      </rtept>
      <rtept lat="45.55176" lon="5.93942">
        <ele>367</ele>
      </rtept>
      <rtept lat="45.55105" lon="5.93942">
        <ele>367</ele>
      </rtept>
      <rtept lat="45.54993" lon="5.93908">
        <ele>371</ele>
      </rtept>
      <rtept lat="45.54929" lon="5.94099">
        <ele>370</ele>
      </rtept>
      <rtept lat="45.54908" lon="5.94204">
        <ele>367</ele>
      </rtept>
      <rtept lat="45.54991" lon="5.94287">
        <ele>365</ele>
      </rtept>
      <rtept lat="45.5506" lon="5.94384">
        <ele>361</ele>
      </rtept>
      <rtept lat="45.55147" lon="5.94384">
        <ele>357</ele>
      </rtept>
      <rtept lat="45.55129" lon="5.94607">
        <ele>358</ele>
      </rtept>
      <rtept lat="45.55029" lon="5.94809">
        <ele>355</ele>
      </rtept>
      <rtept lat="45.54884" lon="5.94886">
        <ele>346</ele>
      </rtept>
      <rtept lat="45.5477" lon="5.94931">
        <ele>342</ele>
      </rtept>
      <rtept lat="45.5468" lon="5.95004">
        <ele>339</ele>
      </rtept>
      <rtept lat="45.54596" lon="5.95133">
        <ele>340</ele>
      </rtept>
      <rtept lat="45.54446" lon="5.95195">
        <ele>343</ele>
      </rtept>
      <rtept lat="45.543" lon="5.95262">
        <ele>344</ele>
      </rtept>
      <rtept lat="45.54156" lon="5.95212">
        <ele>337</ele>
      </rtept>
      <rtept lat="45.54041" lon="5.95204">
        <ele>338</ele>
      </rtept>
      <rtept lat="45.53917" lon="5.95141">
        <ele>343</ele>
      </rtept>
      <rtept lat="45.53844" lon="5.95135">
        <ele>347</ele>
      </rtept>
      <rtept lat="45.53765" lon="5.9503">
        <ele>349</ele>
      </rtept>
      <rtept lat="45.5381" lon="5.94993">
        <ele>352</ele>
      </rtept>
      <rtept lat="45.53781" lon="5.94901">
        <ele>358</ele>
      </rtept>
      <rtept lat="45.53711" lon="5.94845">
        <ele>365</ele>
      </rtept>
      <rtept lat="45.53702" lon="5.94764">
        <ele>369</ele>
      </rtept>
      <rtept lat="45.53817" lon="5.94807">
        <ele>376</ele>
      </rtept>
      <rtept lat="45.53865" lon="5.94633">
        <ele>389</ele>
      </rtept>
      <rtept lat="45.53778" lon="5.94491">
        <ele>408</ele>
      </rtept>
      <rtept lat="45.53757" lon="5.94371">
        <ele>425</ele>
      </rtept>
      <rtept lat="45.53775" lon="5.94279">
        <ele>434</ele>
      </rtept>
      <rtept lat="45.53726" lon="5.94227">
        <ele>442</ele>
      </rtept>
      <rtept lat="45.53572" lon="5.94146">
        <ele>468</ele>
      </rtept>
      <rtept lat="45.53664" lon="5.94039">
        <ele>483</ele>
      </rtept>
      <rtept lat="45.53532" lon="5.93983">
        <ele>505</ele>
      </rtept>
      <rtept lat="45.53416" lon="5.93985">
        <ele>516</ele>
      </rtept>
      <rtept lat="45.5355" lon="5.93869">
        <ele>532</ele>
      </rtept>
      <rtept lat="45.5359" lon="5.93845">
        <ele>537</ele>
      </rtept>
      <rtept lat="45.5355" lon="5.93802">
        <ele>544</ele>
      </rtept>
      <rtept lat="45.53724" lon="5.93554">
        <ele>587</ele>
      </rtept>
      <rtept lat="45.53691" lon="5.93339">
        <ele>592</ele>
      </rtept>
      <rtept lat="45.5376" lon="5.93178">
        <ele>575</ele>
      </rtept>
      <rtept lat="45.53843" lon="5.93069">
        <ele>555</ele>
      </rtept>
      <rtept lat="45.53939" lon="5.93157">
        <ele>541</ele>
      </rtept>
      <rtept lat="45.54068" lon="5.93234">
        <ele>522</ele>
      </rtept>
      <rtept lat="45.54219" lon="5.93247">
        <ele>514</ele>
      </rtept>
      <rtept lat="45.54355" lon="5.93232">
        <ele>512</ele>
      </rtept>
      <rtept lat="45.54489" lon="5.9326">
        <ele>508</ele>
      </rtept>
      <rtept lat="45.54636" lon="5.93249">
        <ele>510</ele>
      </rtept>
      <rtept lat="45.54758" lon="5.93249">
        <ele>510</ele>
      </rtept>
      <rtept lat="45.54818" lon="5.93298">
        <ele>507</ele>
      </rtept>
      <rtept lat="45.54796" lon="5.93418">
        <ele>496</ele>
      </rtept>
      <rtept lat="45.5491" lon="5.93433">
        <ele>483</ele>
      </rtept>
      <rtept lat="45.55126" lon="5.9341">
        <ele>463</ele>
      </rtept>
      <rtept lat="45.55256" lon="5.93453">
        <ele>444</ele>
      </rtept>
      <rtept lat="45.55329" lon="5.93558">
        <ele>430</ele>
      </rtept>
      <rtept lat="45.55222" lon="5.93642">
        <ele>415</ele>
      </rtept>
      <rtept lat="45.55195" lon="5.93811">
        <ele>375</ele>
      </rtept>
    </rte>
  <rte>
    <name><![CDATA[10 févr. 2019 à 15:15:48]]></name>
    <cmt><![CDATA[10 févr. 2019 à 15:15:48]]></cmt>
    <desc><![CDATA[{DC1}Heure de fin	: 00:09:21
Durée totale	: -17690439h44:12
Moyenne globale	: -
Pente moyenne	: nan %
Aire incluse	: 0.0000 ha
Détails par segments
distance  | durée    | vit.moy. | vit.max. | déniv. + | déniv -
   km     | hh:mn:ss |   km/h   |   km/h   |    m     |    m
     0.00 | 00:00:00 |      0.0 |      0.0 |        0 |        0{DC2}]]></desc>
      <rtept lat="45.5175" lon="5.93483">
        <ele>732.3</ele>
      </rtept>
    </rte>
  <rte>
    <name><![CDATA[10 févr. 2019 à 15:06:08]]></name>
    <cmt><![CDATA[10 févr. 2019 à 15:06:08]]></cmt>
    <desc><![CDATA[{DC1}Heure de fin	: 
Durée totale	: 0h00:00
Moyenne globale	: -
Pente moyenne	: 8.03 %
Aire incluse	: 204.0794 ha
Détails par segments
distance  | durée    | vit.moy. | vit.max. | déniv. + | déniv -
   km     | hh:mn:ss |   km/h   |   km/h   |    m     |    m
    12.88 | 00:00:00 |      0.0 |      0.0 |        0 |        0{DC2}]]></desc>
      <rtept lat="45.5509" lon="5.9394">
        <ele>368</ele>
      </rtept>
      <rtept lat="45.55217" lon="5.93791">
        <ele>377</ele>
      </rtept>
    </rte>
  <rte>
    <name><![CDATA[10 févr. 2019 à 14:22:06]]></name>
    <cmt><![CDATA[10 févr. 2019 à 14:22:06]]></cmt>
    <desc><![CDATA[{DC1}Heure de fin	: 00:09:21
Durée totale	: -17690438h37:54
Moyenne globale	: -
Pente moyenne	: 5.62 %
Aire incluse	: 5.7967 ha
Détails par segments
distance  | durée    | vit.moy. | vit.max. | déniv. + | déniv -
   km     | hh:mn:ss |   km/h   |   km/h   |    m     |    m
     3.30 | 00:00:00 |      0.0 |      0.0 |        0 |        0{DC2}]]></desc>
      <rtept lat="45.55169" lon="5.93089">
        <ele>415</ele>
      </rtept>
      <rtept lat="45.5518" lon="5.93905">
        <ele>366</ele>
      </rtept>
    </rte>
  <rte>
    <name><![CDATA[10 févr. 2019 à 09:50:45]]></name>
    <cmt><![CDATA[10 févr. 2019 à 09:50:45]]></cmt>
    <desc><![CDATA[{DC1}Heure de fin	: 00:09:21
Durée totale	: -17690433h09:14
Moyenne globale	: -
Pente moyenne	: 0.00 %
Aire incluse	: 50.7119 ha
Détails par segments
distance  | durée    | vit.moy. | vit.max. | déniv. + | déniv -
   km     | hh:mn:ss |   km/h   |   km/h   |    m     |    m
     4.33 | 00:00:00 |      0.0 |      0.0 |        0 |        0{DC2}]]></desc>
      <rtept lat="45.5503" lon="5.93918">
        <ele>373.6</ele>
      </rtept>
      <rtept lat="45.55191" lon="5.93893">
        <ele>366.7</ele>
      </rtept>
    </rte>
  <rte>
    <name><![CDATA[10 févr. 2019 à 09:07:08]]></name>
    <cmt><![CDATA[10 févr. 2019 à 09:07:08]]></cmt>
    <desc><![CDATA[{DC1}Heure de fin	: 00:09:21
Durée totale	: -17690433h52:52
Moyenne globale	: -
Pente moyenne	: nan %
Aire incluse	: 0.0000 ha
Détails par segments
distance  | durée    | vit.moy. | vit.max. | déniv. + | déniv -
   km     | hh:mn:ss |   km/h   |   km/h   |    m     |    m
     0.00 | 00:00:00 |      0.0 |      0.0 |        0 |        0{DC2}]]></desc>
      <rtept lat="45.55102" lon="5.93919">
        <ele>370.1</ele>
      </rtept>
    </rte>
  <rte>
    <name><![CDATA[10 févr. 2019 à 09:02:25]]></name>
    <cmt><![CDATA[10 févr. 2019 à 09:02:25]]></cmt>
    <desc><![CDATA[{DC1}Heure de fin	: 00:09:21
Durée totale	: -17690433h57:35
Moyenne globale	: -
Pente moyenne	: nan %
Aire incluse	: 0.0000 ha
Détails par segments
distance  | durée    | vit.moy. | vit.max. | déniv. + | déniv -
   km     | hh:mn:ss |   km/h   |   km/h   |    m     |    m
     0.00 | 00:00:00 |      0.0 |      0.0 |        0 |        0{DC2}]]></desc>
      <rtept lat="45.55207" lon="5.93813">
        <ele>375.2</ele>
      </rtept>
    </rte>
  <rte>
    <name><![CDATA[10 févr. 2019 à 09:00:27]]></name>
    <cmt><![CDATA[10 févr. 2019 à 09:00:27]]></cmt>
    <desc><![CDATA[{DC1}Heure de fin	: 00:09:21
Durée totale	: -17690433h59:32
Moyenne globale	: -
Pente moyenne	: nan %
Aire incluse	: 0.0000 ha
Détails par segments
distance  | durée    | vit.moy. | vit.max. | déniv. + | déniv -
   km     | hh:mn:ss |   km/h   |   km/h   |    m     |    m
     0.00 | 00:00:00 |      0.0 |      0.0 |        0 |        0{DC2}]]></desc>
      <rtept lat="45.55244" lon="5.93858">
        <ele>366.6</ele>
      </rtept>
    </rte>
</gpx>